createdAt,value
2023-01-15T00:02:17.395Z,9.80
2023-01-15T00:04:46.774Z,9.80
2023-01-15T00:07:16.237Z,10.10
2023-01-15T00:09:45.545Z,9.80
2023-01-15T00:12:15.041Z,10.10
2023-01-15T00:14:43.556Z,9.70
2023-01-15T00:17:14.364Z,10.10
2023-01-15T00:19:42.290Z,9.70
2023-01-15T00:22:10.742Z,9.90
2023-01-15T00:24:56.269Z,9.80
2023-01-15T00:27:41.006Z,9.90
2023-01-15T00:30:12.120Z,10.00
2023-01-15T00:32:41.168Z,10.00
2023-01-15T00:35:13.633Z,9.90
2023-01-15T00:37:41.715Z,9.90
2023-01-15T00:40:11.710Z,11.30
2023-01-15T00:42:40.992Z,9.90
2023-01-15T00:45:12.061Z,9.90
2023-01-15T00:47:41.539Z,9.90
2023-01-15T00:50:13.655Z,9.90
2023-01-15T00:52:41.812Z,10.00
2023-01-15T00:55:10.581Z,10.00
2023-01-15T01:00:12.228Z,9.90
2023-01-15T01:02:40.643Z,10.00
2023-01-15T01:05:09.465Z,12.60
2023-01-15T01:10:06.876Z,10.00
2023-01-15T01:12:37.988Z,10.00
2023-01-15T01:15:09.901Z,10.00
2023-01-15T01:17:38.577Z,10.10
2023-01-15T01:20:08.575Z,10.00
2023-01-15T01:22:36.828Z,10.00
2023-01-15T01:25:06.488Z,10.20
2023-01-15T01:27:34.429Z,10.00
2023-01-15T01:30:04.611Z,10.00
2023-01-15T01:32:34.485Z,10.00
2023-01-15T01:35:02.590Z,10.20
2023-01-15T01:37:30.879Z,9.80
2023-01-15T01:40:00.228Z,10.00
2023-01-15T01:45:11.556Z,9.90
2023-01-15T01:47:41.522Z,10.00
2023-01-15T01:50:14.227Z,10.10
2023-01-15T01:52:47.276Z,10.10
2023-01-15T01:55:16.745Z,10.10
2023-01-15T01:57:47.208Z,10.10
2023-01-15T02:00:16.793Z,10.10
2023-01-15T02:02:50.012Z,10.10
2023-01-15T02:05:26.850Z,10.10
2023-01-15T02:07:56.130Z,10.20
2023-01-15T02:10:28.470Z,10.10
2023-01-15T02:13:02.028Z,10.10
2023-01-15T02:15:34.913Z,10.20
2023-01-15T02:18:14.199Z,10.20
2023-01-15T02:20:46.511Z,10.20
2023-01-15T02:23:33.695Z,10.20
2023-01-15T02:26:28.188Z,10.20
2023-01-15T02:29:01.190Z,10.20
2023-01-15T02:31:35.435Z,10.30
2023-01-15T02:34:07.796Z,10.20
2023-01-15T02:36:40.972Z,10.20
2023-01-15T02:39:13.968Z,10.50
2023-01-15T02:41:47.537Z,10.20
2023-01-15T02:44:21.627Z,10.30
2023-01-15T02:46:51.979Z,10.30
2023-01-15T02:49:23.531Z,10.30
2023-01-15T02:51:57.258Z,10.20
2023-01-15T02:54:27.472Z,10.30
2023-01-15T02:57:00.543Z,10.20
2023-01-15T02:59:31.548Z,10.20
2023-01-15T03:02:03.214Z,10.20
2023-01-15T03:04:36.176Z,10.20
2023-01-15T03:07:11.817Z,10.20
2023-01-15T03:09:40.368Z,10.20
2023-01-15T03:12:14.843Z,10.10
2023-01-15T03:14:58.605Z,10.20
2023-01-15T03:17:35.819Z,10.90
2023-01-15T03:20:12.278Z,10.10
2023-01-15T03:22:46.847Z,10.30
2023-01-15T03:25:19.488Z,10.50
2023-01-15T03:27:48.656Z,9.40
2023-01-15T03:30:21.893Z,9.40
2023-01-15T03:32:50.556Z,9.20
2023-01-15T03:35:47.313Z,9.00
2023-01-15T03:38:18.439Z,8.50
2023-01-15T03:40:56.790Z,8.60
2023-01-15T03:43:45.228Z,8.50
2023-01-15T03:46:38.141Z,8.50
2023-01-15T03:49:21.682Z,8.50
2023-01-15T03:52:03.721Z,8.40
2023-01-15T03:54:46.002Z,8.20
2023-01-15T03:57:21.289Z,8.10
2023-01-15T03:59:54.135Z,8.10
2023-01-15T04:02:26.270Z,8.00
2023-01-15T04:04:55.862Z,8.40
2023-01-15T04:07:26.638Z,7.80
2023-01-15T04:09:55.797Z,8.30
2023-01-15T04:14:53.421Z,7.80
2023-01-15T04:17:22.197Z,8.20
2023-01-15T04:19:53.081Z,8.20
2023-01-15T04:22:21.166Z,8.00
2023-01-15T04:24:49.343Z,8.30
2023-01-15T04:29:47.261Z,7.80
2023-01-15T04:32:15.499Z,7.70
2023-01-15T04:34:43.839Z,5.20
2023-01-15T04:37:13.472Z,7.70
2023-01-15T04:39:41.994Z,7.50
2023-01-15T04:42:30.311Z,7.60
2023-01-15T04:45:00.484Z,7.80
2023-01-15T04:47:31.362Z,7.80
2023-01-15T04:49:59.348Z,7.60
2023-01-15T04:52:29.014Z,7.50
2023-01-15T04:54:57.177Z,7.60
2023-01-15T04:57:25.449Z,7.50
2023-01-15T04:59:53.808Z,7.50
2023-01-15T05:02:22.401Z,7.70
2023-01-15T05:04:50.869Z,7.20
2023-01-15T05:07:20.932Z,7.20
2023-01-15T05:09:53.932Z,7.40
2023-01-15T05:12:22.160Z,7.50
2023-01-15T05:14:50.319Z,7.60
2023-01-15T05:17:18.750Z,7.30
2023-01-15T05:19:47.059Z,7.30
2023-01-15T05:24:43.475Z,7.50
2023-01-15T05:27:12.996Z,7.30
2023-01-15T05:29:41.051Z,7.50
2023-01-15T05:32:09.723Z,7.20
2023-01-15T05:34:38.349Z,7.50
2023-01-15T05:37:07.474Z,7.50
2023-01-15T05:39:35.837Z,7.40
2023-01-15T05:42:03.908Z,7.20
2023-01-15T05:44:36.488Z,7.30
2023-01-15T05:47:07.634Z,7.30
2023-01-15T05:49:36.055Z,7.10
2023-01-15T05:52:05.907Z,7.20
2023-01-15T05:54:36.812Z,7.50
2023-01-15T05:57:05.720Z,6.90
2023-01-15T05:59:35.387Z,7.20
2023-01-15T06:02:03.947Z,7.30
2023-01-15T06:04:32.476Z,7.20
2023-01-15T06:07:03.441Z,7.00
2023-01-15T06:09:32.421Z,7.10
2023-01-15T06:12:00.367Z,7.40
2023-01-15T06:14:28.658Z,7.00
2023-01-15T06:16:58.018Z,7.00
2023-01-15T06:19:29.385Z,7.10
2023-01-15T06:21:57.808Z,7.10
2023-01-15T06:24:26.081Z,7.10
2023-01-15T06:26:55.015Z,7.00
2023-01-15T06:29:23.083Z,7.10
2023-01-15T06:31:51.381Z,7.00
2023-01-15T06:34:21.197Z,7.00
2023-01-15T06:36:49.216Z,7.00
2023-01-15T06:39:17.788Z,7.00
2023-01-15T06:42:03.216Z,7.00
2023-01-15T06:44:48.843Z,7.10
2023-01-15T06:47:22.864Z,6.90
2023-01-15T06:49:54.900Z,6.90
2023-01-15T06:52:23.966Z,6.60
2023-01-15T06:54:53.322Z,6.80
2023-01-15T06:57:22.314Z,6.80
2023-01-15T06:59:51.216Z,6.80
2023-01-15T07:02:21.438Z,6.80
2023-01-15T07:04:51.081Z,6.80
2023-01-15T07:07:24.193Z,6.80
2023-01-15T07:09:52.383Z,6.70
2023-01-15T07:12:20.800Z,6.70
2023-01-15T07:14:48.771Z,6.60
2023-01-15T07:17:17.116Z,6.60
2023-01-15T07:19:46.955Z,6.50
2023-01-15T07:22:16.235Z,6.50
2023-01-15T07:24:48.022Z,6.40
2023-01-15T07:27:15.947Z,6.40
2023-01-15T07:29:43.940Z,6.40
2023-01-15T07:32:12.433Z,6.40
2023-01-15T07:34:40.614Z,6.30
2023-01-15T07:37:08.671Z,6.40
2023-01-15T07:39:37.269Z,6.30
2023-01-15T07:42:24.288Z,6.30
2023-01-15T07:45:11.899Z,7.00
2023-01-15T07:47:58.475Z,6.30
2023-01-15T07:50:26.612Z,6.20
2023-01-15T07:52:54.564Z,6.20
2023-01-15T07:55:22.949Z,6.20
2023-01-15T07:57:53.739Z,6.20
2023-01-15T08:00:24.844Z,6.20
2023-01-15T08:02:54.155Z,6.20
2023-01-15T08:05:22.535Z,6.20
2023-01-15T08:07:50.508Z,6.20
2023-01-15T08:10:19.809Z,6.20
2023-01-15T08:13:09.738Z,6.20
2023-01-15T08:15:44.203Z,6.20
2023-01-15T08:18:13.847Z,6.20
2023-01-15T08:20:45.029Z,6.20
2023-01-15T08:23:14.082Z,6.20
2023-01-15T08:25:42.098Z,6.50
2023-01-15T08:28:14.224Z,6.20
2023-01-15T08:30:42.564Z,6.20
2023-01-15T08:33:10.627Z,6.20
2023-01-15T08:35:38.613Z,6.20
2023-01-15T08:38:07.849Z,6.20
2023-01-15T08:40:56.872Z,6.20
2023-01-15T08:43:26.324Z,6.20
2023-01-15T08:45:54.669Z,6.20
2023-01-15T08:48:22.909Z,6.20
2023-01-15T08:50:51.385Z,6.20
2023-01-15T08:53:20.354Z,6.10
2023-01-15T08:55:48.933Z,6.20
2023-01-15T08:58:17.635Z,6.10
2023-01-15T09:00:48.577Z,6.20
2023-01-15T09:03:16.628Z,6.20
2023-01-15T09:05:45.950Z,6.20
2023-01-15T09:08:13.890Z,6.20
2023-01-15T09:10:42.023Z,6.20
2023-01-15T09:13:10.991Z,6.20
2023-01-15T09:15:39.203Z,6.20
2023-01-15T09:18:10.743Z,6.20
2023-01-15T09:20:38.765Z,6.30
2023-01-15T09:23:07.039Z,6.20
2023-01-15T09:25:35.016Z,6.30
2023-01-15T09:28:03.484Z,6.30
2023-01-15T09:30:31.538Z,6.70
2023-01-15T09:33:00.865Z,6.30
2023-01-15T09:35:30.134Z,6.30
2023-01-15T09:37:59.026Z,6.30
2023-01-15T09:40:47.721Z,6.30
2023-01-15T09:43:25.405Z,6.30
2023-01-15T09:45:59.858Z,6.30
2023-01-15T09:48:43.483Z,6.40
2023-01-15T09:51:22.916Z,6.40
2023-01-15T09:54:13.062Z,6.40
2023-01-15T09:56:41.479Z,6.40
2023-01-15T09:59:21.835Z,6.40
2023-01-15T10:01:51.210Z,6.90
2023-01-15T10:04:33.990Z,6.40
2023-01-15T10:07:09.890Z,6.30
2023-01-15T10:09:41.682Z,6.40
2023-01-15T10:12:36.691Z,6.40
2023-01-15T10:15:15.589Z,6.40
2023-01-15T10:17:47.648Z,6.30
2023-01-15T10:20:19.107Z,6.70
2023-01-15T10:23:09.345Z,6.40
2023-01-15T10:25:48.173Z,6.60
2023-01-15T10:28:23.847Z,6.40
2023-01-15T10:30:55.709Z,6.40
2023-01-15T10:33:44.207Z,6.40
2023-01-15T10:36:18.277Z,6.40
2023-01-15T10:38:55.339Z,6.20
2023-01-15T10:41:57.163Z,6.30
2023-01-15T10:44:33.882Z,6.30
2023-01-15T10:47:04.134Z,6.30
2023-01-15T10:49:32.443Z,6.30
2023-01-15T10:52:07.367Z,6.30
2023-01-15T10:54:40.343Z,6.20
2023-01-15T10:57:12.489Z,6.30
2023-01-15T10:59:47.768Z,6.50
2023-01-15T11:02:26.281Z,6.30
2023-01-15T11:04:56.075Z,6.40
2023-01-15T11:07:32.632Z,6.40
2023-01-15T11:10:05.047Z,6.50
2023-01-15T11:12:50.551Z,6.40
2023-01-15T11:15:42.879Z,6.40
2023-01-15T11:18:42.074Z,6.50
2023-01-15T11:21:14.357Z,6.50
2023-01-15T11:23:43.075Z,6.50
2023-01-15T11:26:20.299Z,6.40
2023-01-15T11:28:48.847Z,6.40
2023-01-15T11:31:18.013Z,6.40
2023-01-15T11:33:56.997Z,6.50
2023-01-15T11:36:26.935Z,6.50
2023-01-15T11:38:55.202Z,6.50
2023-01-15T11:41:49.446Z,6.60
2023-01-15T11:44:32.497Z,6.60
2023-01-15T11:47:18.190Z,6.60
2023-01-15T11:50:09.633Z,6.60
2023-01-15T11:52:40.028Z,6.70
2023-01-15T11:55:13.732Z,6.70
2023-01-15T11:57:43.686Z,6.70
2023-01-15T12:00:21.851Z,6.70
2023-01-15T12:02:51.092Z,6.70
2023-01-15T12:05:21.788Z,6.70
2023-01-15T12:07:53.180Z,6.70
2023-01-15T12:10:43.220Z,6.70
2023-01-15T12:13:27.085Z,6.70
2023-01-15T12:16:04.196Z,6.70
2023-01-15T12:18:53.705Z,6.70
2023-01-15T12:21:54.610Z,6.80
2023-01-15T12:25:06.154Z,6.90
2023-01-15T12:27:53.669Z,7.00
2023-01-15T12:30:30.831Z,7.20
2023-01-15T12:33:07.112Z,7.20
2023-01-15T12:35:42.299Z,7.30
2023-01-15T12:38:17.384Z,7.30
2023-01-15T12:40:50.954Z,7.30
2023-01-15T12:43:43.213Z,7.30
2023-01-15T12:46:17.521Z,7.30
2023-01-15T12:48:54.454Z,7.30
2023-01-15T12:51:28.351Z,7.30
2023-01-15T12:54:00.490Z,7.40
2023-01-15T12:56:34.295Z,7.30
2023-01-15T12:59:11.598Z,7.30
2023-01-15T13:01:53.263Z,7.30
2023-01-15T13:04:26.800Z,7.30
2023-01-15T13:07:04.255Z,7.30
2023-01-15T13:09:43.213Z,7.80
2023-01-15T13:12:18.972Z,7.30
2023-01-15T13:14:50.757Z,7.20
2023-01-15T13:17:31.493Z,7.20
2023-01-15T13:20:24.071Z,7.20
2023-01-15T13:23:01.489Z,7.20
2023-01-15T13:25:45.041Z,7.20
2023-01-15T13:28:31.498Z,7.20
2023-01-15T13:31:09.075Z,7.30
2023-01-15T13:33:44.410Z,7.20
2023-01-15T13:36:17.148Z,7.30
2023-01-15T13:38:47.821Z,7.40
2023-01-15T13:41:41.809Z,7.30
2023-01-15T13:44:20.327Z,7.20
2023-01-15T13:46:50.547Z,7.30
2023-01-15T13:49:25.100Z,7.40
2023-01-15T13:51:53.766Z,7.40
2023-01-15T13:54:28.020Z,7.40
2023-01-15T13:56:56.423Z,7.40
2023-01-15T13:59:44.659Z,7.00
2023-01-15T14:02:32.336Z,7.10
2023-01-15T14:05:14.033Z,7.30
2023-01-15T14:07:42.084Z,7.00
2023-01-15T14:10:24.881Z,7.00
2023-01-15T14:13:07.863Z,7.10
2023-01-15T14:15:46.802Z,7.10
2023-01-15T14:18:26.058Z,7.10
2023-01-15T14:21:15.049Z,7.10
2023-01-15T14:24:04.787Z,7.10
2023-01-15T14:26:43.709Z,7.20
2023-01-15T14:29:53.205Z,7.30
2023-01-15T14:32:32.662Z,7.20
2023-01-15T14:35:03.416Z,7.10
2023-01-15T14:37:46.265Z,7.10
2023-01-15T14:40:21.580Z,7.20
2023-01-15T14:43:13.531Z,7.30
2023-01-15T14:45:44.972Z,7.30
2023-01-15T14:48:20.637Z,7.40
2023-01-15T14:50:50.042Z,7.60
2023-01-15T14:53:39.463Z,7.60
2023-01-15T14:56:17.450Z,7.50
2023-01-15T14:58:54.755Z,7.40
2023-01-15T15:01:39.365Z,7.30
2023-01-15T15:04:16.397Z,7.10
2023-01-15T15:06:48.938Z,7.10
2023-01-15T15:09:28.999Z,6.90
2023-01-15T15:12:21.105Z,6.90
2023-01-15T15:14:56.334Z,6.90
2023-01-15T15:17:33.587Z,6.90
2023-01-15T15:20:19.499Z,7.00
2023-01-15T15:22:53.178Z,6.70
2023-01-15T15:25:25.136Z,6.60
2023-01-15T15:28:03.630Z,6.30
2023-01-15T15:30:34.903Z,6.40
2023-01-15T15:33:06.924Z,6.10
2023-01-15T15:35:36.030Z,6.20
2023-01-15T15:38:06.969Z,6.40
2023-01-15T15:40:39.377Z,6.40
2023-01-15T15:43:34.124Z,6.40
2023-01-15T15:46:34.260Z,6.80
2023-01-15T15:49:02.566Z,6.80
2023-01-15T15:51:33.263Z,6.60
2023-01-15T15:54:06.027Z,6.60
2023-01-15T15:56:37.577Z,8.20
2023-01-15T15:59:07.806Z,6.40
2023-01-15T16:01:40.034Z,6.70
2023-01-15T16:04:08.127Z,6.50
2023-01-15T16:06:37.345Z,6.60
2023-01-15T16:09:11.178Z,6.40
2023-01-15T16:11:41.937Z,6.50
2023-01-15T16:14:17.854Z,6.10
2023-01-15T16:16:47.578Z,6.60
2023-01-15T16:19:19.728Z,6.20
2023-01-15T16:21:48.569Z,6.30
2023-01-15T16:24:28.397Z,6.30
2023-01-15T16:27:08.539Z,6.30
2023-01-15T16:29:37.234Z,6.20
2023-01-15T16:32:12.539Z,6.20
2023-01-15T16:34:42.043Z,6.20
2023-01-15T16:37:25.949Z,6.30
2023-01-15T16:39:54.196Z,6.20
2023-01-15T16:42:32.583Z,6.60
2023-01-15T16:45:04.256Z,6.30
2023-01-15T16:47:36.052Z,6.30
2023-01-15T16:50:42.406Z,6.90
2023-01-15T16:53:39.025Z,6.40
2023-01-15T16:56:26.889Z,6.10
2023-01-15T16:58:56.238Z,6.30
2023-01-15T17:01:42.093Z,6.20
2023-01-15T17:04:20.041Z,6.40
2023-01-15T17:06:56.493Z,6.40
2023-01-15T17:09:26.902Z,6.00
2023-01-15T17:11:57.762Z,6.40
2023-01-15T17:14:29.894Z,6.70
2023-01-15T17:17:16.637Z,6.60
2023-01-15T17:22:17.244Z,6.70
2023-01-15T17:24:52.072Z,6.60
2023-01-15T17:29:50.109Z,6.30
2023-01-15T17:32:21.263Z,6.00
2023-01-15T17:34:49.239Z,6.10
2023-01-15T17:37:17.208Z,6.10
2023-01-15T17:39:45.275Z,6.20
2023-01-15T17:42:16.071Z,6.50
2023-01-15T17:44:44.236Z,6.00
2023-01-15T17:47:14.128Z,6.30
2023-01-15T17:49:42.248Z,6.40
2023-01-15T17:52:17.663Z,6.10
2023-01-15T17:55:03.450Z,6.10
2023-01-15T17:57:49.369Z,5.90
2023-01-15T18:00:37.276Z,5.80
2023-01-15T18:03:24.739Z,6.00
2023-01-15T18:05:52.787Z,6.00
2023-01-15T18:08:20.910Z,5.90
2023-01-15T18:10:48.931Z,5.90
2023-01-15T18:13:19.194Z,5.60
2023-01-15T18:15:47.164Z,5.80
2023-01-15T18:18:18.047Z,6.10
2023-01-15T18:20:46.537Z,5.50
2023-01-15T18:23:14.522Z,5.40
2023-01-15T18:25:46.117Z,5.50
2023-01-15T18:28:16.167Z,5.50
2023-01-15T18:33:13.866Z,5.90
2023-01-15T18:35:43.562Z,6.10
2023-01-15T18:43:26.113Z,5.70
2023-01-15T18:46:12.778Z,5.60
2023-01-15T18:51:11.931Z,5.40
2023-01-15T19:01:09.946Z,5.60
2023-01-15T19:03:38.709Z,5.60
2023-01-15T19:06:12.532Z,5.30
2023-01-15T19:08:42.042Z,5.60
2023-01-15T19:11:14.431Z,5.60
2023-01-15T19:13:44.001Z,5.60
2023-01-15T19:16:29.966Z,5.60
2023-01-15T19:18:58.038Z,5.60
2023-01-15T19:21:31.751Z,5.60
2023-01-15T19:24:00.003Z,5.50
2023-01-15T19:26:28.082Z,5.50
2023-01-15T19:28:57.364Z,5.50
2023-01-15T19:31:38.957Z,5.60
2023-01-15T19:34:33.469Z,5.40
2023-01-15T19:37:00.152Z,5.30
2023-01-15T19:39:29.523Z,5.40
2023-01-15T19:42:21.831Z,7.40
2023-01-15T19:47:56.598Z,5.40
2023-01-15T19:50:29.313Z,5.60
2023-01-15T19:52:58.948Z,5.20
2023-01-15T19:55:29.290Z,5.30
2023-01-15T19:57:59.489Z,5.30
2023-01-15T20:00:28.088Z,5.40
2023-01-15T20:02:56.513Z,5.30
2023-01-15T20:05:26.344Z,5.30
2023-01-15T20:10:26.342Z,5.50
2023-01-15T20:15:43.956Z,5.30
2023-01-15T20:20:41.051Z,5.10
2023-01-15T20:23:10.701Z,5.00
2023-01-15T20:25:46.320Z,5.10
2023-01-15T20:28:14.345Z,5.40
2023-01-15T20:30:42.554Z,5.30
2023-01-15T20:33:11.200Z,5.20
2023-01-15T20:35:39.335Z,5.40
2023-01-15T20:38:07.488Z,5.30
2023-01-15T20:43:24.962Z,5.20
2023-01-15T20:45:53.050Z,5.20
2023-01-15T20:48:38.503Z,5.20
2023-01-15T20:51:13.151Z,5.20
2023-01-15T20:53:42.462Z,5.20
2023-01-15T20:56:15.760Z,5.20
2023-01-15T20:58:45.611Z,5.20
2023-01-15T21:01:13.880Z,5.20
2023-01-15T21:03:42.170Z,5.30
2023-01-15T21:06:12.060Z,5.30
2023-01-15T21:08:42.089Z,5.20
2023-01-15T21:11:10.660Z,5.00
2023-01-15T21:13:44.828Z,5.20
2023-01-15T21:16:15.845Z,4.80
2023-01-15T21:18:45.155Z,5.00
2023-01-15T21:21:16.251Z,5.20
2023-01-15T21:23:46.202Z,5.10
2023-01-15T21:26:14.468Z,5.20
2023-01-15T21:28:45.140Z,5.00
2023-01-15T21:31:15.387Z,5.20
2023-01-15T21:33:43.426Z,5.00
2023-01-15T21:36:16.424Z,5.00
2023-01-15T21:38:45.170Z,5.10
2023-01-15T21:41:14.881Z,5.20
2023-01-15T21:44:00.887Z,5.20
2023-01-15T21:46:30.924Z,7.30
2023-01-15T21:49:00.646Z,5.00
2023-01-15T21:51:30.515Z,4.80
2023-01-15T21:54:00.227Z,4.80
2023-01-15T21:56:28.813Z,4.90
2023-01-15T21:58:57.070Z,5.10
2023-01-15T22:01:25.936Z,5.00
2023-01-15T22:03:59.305Z,5.00
2023-01-15T22:06:27.249Z,5.30
2023-01-15T22:08:55.446Z,5.00
2023-01-15T22:11:24.508Z,5.10
2023-01-15T22:13:53.588Z,5.20
2023-01-15T22:16:22.271Z,5.00
2023-01-15T22:18:52.517Z,5.20
2023-01-15T22:21:22.106Z,5.10
2023-01-15T22:23:50.029Z,5.30
2023-01-15T22:26:19.306Z,5.30
2023-01-15T22:28:47.898Z,5.50
2023-01-15T22:31:17.987Z,5.50
2023-01-15T22:33:50.721Z,5.50
2023-01-15T22:38:54.533Z,5.40
2023-01-15T22:41:39.546Z,5.60
2023-01-15T22:49:06.702Z,5.40
2023-01-15T22:51:38.388Z,5.40
2023-01-15T22:54:12.411Z,5.40
2023-01-15T22:56:40.889Z,5.40
2023-01-15T22:59:10.267Z,5.40
2023-01-15T23:01:39.634Z,5.50
2023-01-15T23:04:20.441Z,5.50
2023-01-15T23:06:48.866Z,5.40
2023-01-15T23:09:19.103Z,5.30
2023-01-15T23:11:47.245Z,5.20
2023-01-15T23:14:16.924Z,5.30
2023-01-15T23:19:14.594Z,5.00
2023-01-15T23:21:43.604Z,5.30
2023-01-15T23:24:15.193Z,4.90
2023-01-15T23:26:44.462Z,5.00
2023-01-15T23:29:15.453Z,5.30
2023-01-15T23:31:43.388Z,5.10
2023-01-15T23:34:12.669Z,5.90
2023-01-15T23:36:41.152Z,5.20
2023-01-15T23:39:10.501Z,5.10
2023-01-15T23:41:55.911Z,5.10
2023-01-15T23:44:44.093Z,6.10
2023-01-15T23:47:12.242Z,5.10
2023-01-15T23:49:40.193Z,4.90
2023-01-15T23:52:09.875Z,4.90
2023-01-15T23:54:37.835Z,4.90
2023-01-15T23:57:08.043Z,4.90
2023-01-15T23:59:37.679Z,4.90
